createdAt,value
2022-09-11T00:03:36.073Z,4.97
2022-09-11T00:07:20.062Z,1.98
2022-09-11T00:11:07.631Z,13.32
2022-09-11T00:14:50.272Z,4.93
2022-09-11T00:18:36.004Z,4.93
2022-09-11T00:22:19.747Z,5.70
2022-09-11T00:26:03.468Z,5.28
2022-09-11T00:29:46.316Z,11.45
2022-09-11T00:33:29.891Z,6.10
2022-09-11T00:37:12.471Z,7.13
2022-09-11T00:40:58.289Z,8.15
2022-09-11T00:45:02.575Z,5.30
2022-09-11T00:48:50.070Z,8.20
2022-09-11T00:52:36.737Z,9.40
2022-09-11T00:56:22.714Z,3.83
2022-09-11T01:00:08.011Z,5.88
2022-09-11T01:03:50.912Z,6.53
2022-09-11T01:07:34.424Z,7.38
2022-09-11T01:11:40.408Z,9.55
2022-09-11T01:15:29.828Z,9.27
2022-09-11T01:19:27.919Z,9.13
2022-09-11T01:23:40.499Z,14.00
2022-09-11T01:27:42.910Z,8.35
2022-09-11T01:31:31.001Z,11.18
2022-09-11T01:35:18.447Z,9.73
2022-09-11T01:39:03.942Z,10.05
2022-09-11T01:42:52.004Z,7.32
2022-09-11T01:46:41.002Z,9.05
2022-09-11T01:50:25.598Z,12.25
2022-09-11T01:54:12.152Z,11.30
2022-09-11T01:58:01.421Z,10.32
2022-09-11T02:01:51.168Z,9.30
2022-09-11T02:05:37.025Z,9.25
2022-09-11T02:09:22.830Z,7.47
2022-09-11T02:13:13.591Z,9.13
2022-09-11T02:17:04.468Z,8.00
2022-09-11T02:20:47.586Z,8.60
2022-09-11T02:24:30.048Z,8.15
2022-09-11T02:28:14.200Z,13.52
2022-09-11T02:31:56.845Z,9.32
2022-09-11T02:35:48.206Z,11.50
2022-09-11T02:39:47.235Z,11.75
2022-09-11T02:43:47.276Z,12.50
2022-09-11T02:47:42.987Z,19.42
2022-09-11T02:51:33.052Z,11.85
2022-09-11T02:55:25.884Z,12.73
2022-09-11T02:59:15.246Z,9.80
2022-09-11T03:02:59.064Z,9.93
2022-09-11T03:06:43.139Z,10.32
2022-09-11T03:10:27.590Z,11.48
2022-09-11T03:14:12.280Z,14.48
2022-09-11T03:17:54.972Z,13.32
2022-09-11T03:21:38.816Z,16.27
2022-09-11T03:25:23.564Z,15.85
2022-09-11T03:29:08.495Z,14.65
2022-09-11T03:32:52.274Z,10.32
2022-09-11T03:36:35.353Z,13.55
2022-09-11T03:40:18.919Z,14.50
2022-09-11T03:44:01.622Z,9.88
2022-09-11T03:47:44.335Z,14.57
2022-09-11T03:51:29.061Z,14.52
2022-09-11T03:55:12.037Z,17.67
2022-09-11T03:58:58.034Z,17.08
2022-09-11T04:02:42.206Z,18.52
2022-09-11T04:06:24.902Z,12.40
2022-09-11T04:10:09.860Z,22.98
2022-09-11T04:13:52.477Z,15.00
2022-09-11T04:17:35.042Z,12.80
2022-09-11T04:21:19.260Z,13.40
2022-09-11T04:25:02.105Z,11.07
2022-09-11T04:28:46.974Z,16.30
2022-09-11T04:32:30.333Z,17.20
2022-09-11T04:36:16.458Z,14.05
2022-09-11T04:40:00.317Z,17.15
2022-09-11T04:43:43.447Z,23.17
2022-09-11T04:47:27.325Z,12.73
2022-09-11T04:51:10.175Z,15.95
2022-09-11T04:54:52.515Z,12.55
2022-09-11T04:58:36.183Z,16.60
2022-09-11T05:02:19.897Z,20.13
2022-09-11T05:06:06.993Z,20.42
2022-09-11T05:09:49.548Z,18.95
2022-09-11T05:13:36.231Z,17.20
2022-09-11T05:17:19.310Z,17.10
2022-09-11T05:21:02.701Z,15.93
2022-09-11T05:24:46.732Z,15.52
2022-09-11T05:28:30.819Z,14.95
2022-09-11T05:32:13.743Z,16.90
2022-09-11T05:36:04.741Z,14.48
2022-09-11T05:39:48.697Z,18.67
2022-09-11T05:43:31.198Z,18.15
2022-09-11T05:47:14.766Z,19.90
2022-09-11T05:50:59.519Z,14.35
2022-09-11T05:54:42.253Z,15.32
2022-09-11T05:58:26.499Z,11.25
2022-09-11T06:02:11.272Z,14.57
2022-09-11T06:05:53.797Z,11.77
2022-09-11T06:09:36.705Z,13.93
2022-09-11T06:13:19.120Z,10.43
2022-09-11T06:17:03.365Z,12.77
2022-09-11T06:20:56.575Z,17.80
2022-09-11T06:24:39.464Z,12.85
2022-09-11T06:28:23.696Z,16.00
2022-09-11T06:32:07.979Z,9.63
2022-09-11T06:35:58.833Z,12.50
2022-09-11T06:39:41.651Z,14.73
2022-09-11T06:43:24.768Z,15.63
2022-09-11T06:47:08.949Z,15.13
2022-09-11T06:50:51.458Z,9.70
2022-09-11T06:54:33.989Z,9.50
2022-09-11T06:58:16.726Z,12.25
2022-09-11T07:02:00.745Z,11.63
2022-09-11T07:05:48.714Z,13.00
2022-09-11T07:09:31.539Z,12.80
2022-09-11T07:13:13.937Z,9.57
2022-09-11T07:16:56.667Z,12.50
2022-09-11T07:20:41.383Z,15.38
2022-09-11T07:24:25.220Z,9.95
2022-09-11T07:28:07.947Z,11.40
2022-09-11T07:31:50.400Z,8.55
2022-09-11T07:35:32.971Z,10.98
2022-09-11T07:39:15.789Z,9.30
2022-09-11T07:43:00.129Z,14.88
2022-09-11T07:46:43.061Z,9.48
2022-09-11T07:50:25.954Z,12.18
2022-09-11T07:54:10.371Z,16.08
2022-09-11T07:57:54.066Z,7.47
2022-09-11T08:01:38.016Z,10.20
2022-09-11T08:05:20.783Z,14.65
2022-09-11T08:09:06.189Z,11.93
2022-09-11T08:12:48.659Z,11.45
2022-09-11T08:16:31.520Z,12.13
2022-09-11T08:20:15.700Z,8.98
2022-09-11T08:23:58.909Z,15.77
2022-09-11T08:27:41.287Z,13.82
2022-09-11T08:31:26.884Z,12.35
2022-09-11T08:35:10.204Z,9.30
2022-09-11T08:38:55.136Z,10.65
2022-09-11T08:42:38.781Z,9.57
2022-09-11T08:46:25.057Z,10.57
2022-09-11T08:50:13.265Z,9.30
2022-09-11T08:53:57.852Z,10.40
2022-09-11T08:57:46.346Z,12.75
2022-09-11T09:01:37.393Z,12.27
2022-09-11T09:05:31.526Z,10.40
2022-09-11T09:09:25.113Z,11.95
2022-09-11T09:13:22.122Z,10.82
2022-09-11T09:17:08.538Z,11.25
2022-09-11T09:21:01.968Z,7.25
2022-09-11T09:24:50.120Z,11.00
2022-09-11T09:28:39.365Z,7.88
2022-09-11T09:32:26.619Z,13.90
2022-09-11T09:36:16.727Z,10.27
2022-09-11T09:40:02.383Z,12.18
2022-09-11T09:43:57.015Z,8.65
2022-09-11T09:47:44.729Z,10.30
2022-09-11T09:51:28.181Z,13.57
2022-09-11T09:59:02.652Z,11.40
2022-09-11T10:02:49.284Z,10.13
2022-09-11T10:06:31.846Z,8.80
2022-09-11T10:10:28.107Z,12.50
2022-09-11T10:14:49.089Z,12.20
2022-09-11T10:18:46.204Z,9.23
2022-09-11T10:22:32.320Z,10.45
2022-09-11T10:26:20.956Z,5.15
2022-09-11T10:30:04.899Z,9.98
2022-09-11T10:33:53.527Z,9.02
2022-09-11T10:37:36.485Z,7.70
2022-09-11T10:41:23.036Z,7.10
2022-09-11T10:45:12.926Z,6.05
2022-09-11T10:48:56.932Z,6.13
2022-09-11T10:52:49.778Z,5.13
2022-09-11T10:56:39.360Z,7.30
2022-09-11T11:00:23.682Z,5.72
2022-09-11T11:04:12.313Z,4.80
2022-09-11T11:08:24.431Z,7.10
2022-09-11T11:12:24.705Z,5.63
2022-09-11T11:16:15.865Z,5.75
2022-09-11T11:20:12.406Z,5.65
2022-09-11T11:24:15.327Z,4.85
2022-09-11T11:28:24.759Z,7.43
2022-09-11T11:32:27.859Z,7.70
2022-09-11T11:40:01.414Z,4.43
2022-09-11T11:43:48.897Z,4.43
2022-09-11T11:47:35.771Z,3.67
2022-09-11T11:51:19.781Z,4.30
2022-09-11T11:55:13.236Z,5.70
2022-09-11T11:59:03.708Z,5.63
2022-09-11T12:02:51.861Z,5.18
2022-09-11T12:06:35.370Z,4.38
2022-09-11T12:10:28.642Z,4.18
2022-09-11T12:18:08.046Z,3.50
2022-09-11T12:22:12.790Z,4.22
2022-09-11T12:26:21.050Z,7.07
2022-09-11T12:30:22.252Z,4.32
2022-09-11T12:34:04.678Z,6.40
2022-09-11T12:37:54.193Z,6.20
2022-09-11T12:41:37.747Z,5.10
2022-09-11T12:45:35.615Z,6.50
2022-09-11T12:49:22.878Z,5.55
2022-09-11T12:53:08.833Z,4.30
2022-09-11T12:56:54.034Z,4.28
2022-09-11T13:00:41.146Z,4.47
2022-09-11T13:04:26.405Z,6.93
2022-09-11T13:08:17.782Z,4.10
2022-09-11T13:12:49.843Z,4.85
2022-09-11T13:16:35.673Z,6.13
2022-09-11T13:20:22.526Z,4.05
2022-09-11T13:24:22.044Z,4.70
2022-09-11T13:28:07.736Z,5.95
2022-09-11T13:31:51.736Z,4.53
2022-09-11T13:35:35.771Z,6.22
2022-09-11T13:39:20.305Z,5.13
2022-09-11T13:43:04.476Z,4.35
2022-09-11T13:46:53.009Z,3.97
2022-09-11T13:50:35.621Z,5.45
2022-09-11T13:54:25.571Z,5.00
2022-09-11T13:58:24.239Z,3.05
2022-09-11T14:02:28.665Z,3.85
2022-09-11T14:06:16.092Z,3.40
2022-09-11T14:10:04.175Z,5.63
2022-09-11T14:13:50.174Z,5.95
2022-09-11T14:17:34.237Z,6.13
2022-09-11T14:21:20.053Z,7.78
2022-09-11T14:25:17.752Z,5.53
2022-09-11T14:29:02.900Z,3.40
2022-09-11T14:32:47.142Z,2.90
2022-09-11T14:36:29.960Z,9.75
2022-09-11T14:40:18.012Z,6.32
2022-09-11T14:44:00.685Z,4.28
2022-09-11T14:47:44.216Z,3.92
2022-09-11T14:51:28.695Z,2.08
2022-09-11T14:55:15.752Z,2.75
2022-09-11T14:58:58.723Z,8.05
2022-09-11T15:02:42.134Z,5.00
2022-09-11T15:06:25.432Z,4.82
2022-09-11T15:10:11.720Z,4.13
2022-09-11T15:14:13.809Z,4.82
2022-09-11T15:17:57.506Z,4.32
2022-09-11T15:21:40.166Z,5.95
2022-09-11T15:25:24.587Z,4.18
2022-09-11T15:29:09.978Z,4.32
2022-09-11T15:32:52.801Z,4.70
2022-09-11T15:36:38.121Z,4.50
2022-09-11T15:40:21.254Z,5.60
2022-09-11T15:44:10.597Z,4.50
2022-09-11T15:47:53.395Z,4.45
2022-09-11T15:51:36.272Z,4.97
2022-09-11T15:55:19.051Z,5.15
2022-09-11T15:59:01.669Z,6.13
2022-09-11T16:02:45.721Z,5.38
2022-09-11T16:06:31.572Z,3.47
2022-09-11T16:10:14.325Z,5.85
2022-09-11T16:13:57.004Z,4.53
2022-09-11T16:17:39.492Z,4.63
2022-09-11T16:21:24.203Z,5.13
2022-09-11T16:25:07.050Z,4.50
2022-09-11T16:32:37.363Z,6.80
2022-09-11T16:36:22.608Z,5.05
2022-09-11T16:40:09.135Z,4.13
2022-09-11T16:43:53.807Z,5.07
2022-09-11T16:47:37.084Z,5.35
2022-09-11T16:51:21.215Z,4.35
2022-09-11T16:55:03.921Z,5.68
2022-09-11T16:58:48.083Z,5.05
2022-09-11T17:02:30.851Z,4.60
2022-09-11T17:06:14.698Z,8.77
2022-09-11T17:09:57.307Z,7.10
2022-09-11T17:13:40.178Z,4.82
2022-09-11T17:17:24.106Z,5.05
2022-09-11T17:21:08.754Z,7.60
2022-09-11T17:24:51.351Z,7.53
2022-09-11T17:28:34.818Z,5.85
2022-09-11T17:32:29.024Z,7.18
2022-09-11T17:36:14.740Z,5.47
2022-09-11T17:39:57.985Z,8.18
2022-09-11T17:43:41.338Z,5.50
2022-09-11T17:47:23.782Z,8.38
2022-09-11T17:51:10.061Z,5.13
2022-09-11T17:54:53.808Z,9.50
2022-09-11T17:58:37.191Z,14.35
2022-09-11T18:06:04.194Z,9.32
2022-09-11T18:09:47.302Z,6.57
2022-09-11T18:13:32.406Z,6.03
2022-09-11T18:17:14.984Z,9.30
2022-09-11T18:21:04.540Z,6.55
2022-09-11T18:24:47.059Z,7.40
2022-09-11T18:28:31.399Z,9.35
2022-09-11T18:32:14.245Z,7.47
2022-09-11T18:35:57.112Z,8.93
2022-09-11T18:39:39.558Z,7.00
2022-09-11T18:43:22.403Z,8.20
2022-09-11T18:47:07.103Z,8.50
2022-09-11T18:50:49.706Z,17.02
2022-09-11T18:54:33.671Z,6.97
2022-09-11T18:58:16.314Z,12.00
2022-09-11T19:02:00.263Z,14.73
2022-09-11T19:05:44.457Z,10.70
2022-09-11T19:09:29.169Z,12.02
2022-09-11T19:13:12.099Z,7.70
2022-09-11T19:16:54.872Z,8.95
2022-09-11T19:20:37.743Z,10.50
2022-09-11T19:24:23.474Z,13.45
2022-09-11T19:28:06.038Z,11.32
2022-09-11T19:31:48.989Z,14.75
2022-09-11T19:35:31.962Z,9.18
2022-09-11T19:39:14.530Z,9.80
2022-09-11T19:42:59.845Z,18.70
2022-09-11T19:46:45.344Z,19.10
2022-09-11T19:50:27.889Z,9.95
2022-09-11T19:54:12.886Z,11.23
2022-09-11T19:57:55.555Z,13.85
2022-09-11T20:01:39.703Z,9.27
2022-09-11T20:05:22.239Z,11.52
2022-09-11T20:13:08.556Z,10.40
2022-09-11T20:16:52.747Z,9.55
2022-09-11T20:20:36.162Z,11.32
2022-09-11T20:24:19.765Z,14.18
2022-09-11T20:28:02.515Z,11.13
2022-09-11T20:31:48.270Z,10.18
2022-09-11T20:35:33.281Z,12.85
2022-09-11T20:39:16.917Z,11.90
2022-09-11T20:43:00.476Z,13.38
2022-09-11T20:50:26.137Z,15.10
2022-09-11T20:54:10.462Z,11.73
2022-09-11T20:57:52.920Z,13.57
2022-09-11T21:01:36.138Z,9.25
2022-09-11T21:05:18.782Z,14.13
2022-09-11T21:09:03.900Z,14.32
2022-09-11T21:12:48.021Z,11.07
2022-09-11T21:16:30.972Z,11.32
2022-09-11T21:20:14.203Z,11.48
2022-09-11T21:23:57.650Z,11.30
2022-09-11T21:31:24.222Z,14.13
2022-09-11T21:35:08.539Z,12.20
2022-09-11T21:38:51.063Z,15.82
2022-09-11T21:42:33.991Z,18.02
2022-09-11T21:46:16.959Z,9.68
2022-09-11T21:50:01.015Z,12.82
2022-09-11T21:53:45.877Z,11.15
2022-09-11T21:57:29.683Z,12.88
2022-09-11T22:01:12.458Z,12.85
2022-09-11T22:04:55.343Z,9.32
2022-09-11T22:08:40.949Z,13.55
2022-09-11T22:12:23.694Z,11.38
2022-09-11T22:16:09.627Z,11.07
2022-09-11T22:19:52.596Z,12.07
2022-09-11T22:27:19.910Z,11.23
2022-09-11T22:31:07.557Z,11.52
2022-09-11T22:34:50.235Z,11.27
2022-09-11T22:52:46.176Z,12.85
2022-09-11T22:56:29.002Z,15.88
2022-09-11T23:00:14.507Z,13.48
2022-09-11T23:03:57.236Z,26.05
2022-09-11T23:07:39.213Z,18.10
2022-09-11T23:11:23.707Z,17.17
2022-09-11T23:15:06.662Z,15.18
2022-09-11T23:22:31.636Z,16.02
2022-09-11T23:26:15.246Z,16.27
2022-09-11T23:29:59.534Z,13.48
2022-09-11T23:33:43.100Z,11.02
2022-09-11T23:37:25.917Z,14.32
2022-09-11T23:41:08.878Z,14.80
2022-09-11T23:44:51.770Z,16.70
2022-09-11T23:48:35.977Z,12.95
2022-09-11T23:52:18.575Z,18.00
2022-09-11T23:56:01.491Z,13.98
2022-09-11T23:59:44.222Z,12.90
